GMMN/CMN METAR and TAF weather

Enter ICAO airport designator
Station Type Date Time Source
GMMN METAR 2019/02/23 17:00 UTC NOAA

GMMN 231700Z 35010KT CAVOK 21/07 Q1025 NOSIG


Station Type Date Time Source
GMMN Decoded METAR 2019/02/23 17:00 UTC NOAA

Nouasseur, Morocco (GMMN) 33-22N 007-35W 206M
Feb 23, 2019 - 12:00 PM EST / 2019.02.23 1700 UTC
Wind: from the N (350 degrees) at 12 MPH (10 KT):0
Visibility: greater than 7 mile(s):0
Temperature: 69 F (21 C)
Dew Point: 44 F (7 C)
Relative Humidity: 40%
Pressure (altimeter): 30.27 in. Hg (1025 hPa)
ob: GMMN 231700Z 35010KT CAVOK 21/07 Q1025 NOSIG
cycle: 17

Station Type Date Time Source
GMMN TAF 2019/02/23 12:18 UTC NOAA

TAF GMMN 231100Z 2312/2418 06006KT CAVOK
BECMG 2312/2315 36011KT
BECMG 2321/2324 16004KT
BECMG 2412/2415 36012KT


Example: see airport list